INFOJET
Metar trends

METAR/TAF(Classic format)(METAR/TAF Trend/History displayed directly below)
(enter CONUS apts starting with a K(eg. KMCC), enter Alaska/Hawaii apts starting with a P(eg. PANC))

Get Apt METAR code for recent obs


Get Apt METAR code for recent obs + Direct NWS Link (if METAR history doesn't display (which is often)


FAA Surface Weather Observation Stations ASOS/AWOS Readings with Map


NOAA ASOS Recent Observation History (click to select airport code)






CEC METAR history (last 5 updates)

FTUS46 KEKA 150133 AAA
 TAFCEC
 TAF AMD
 KCEC 150133Z 1502/1524 16012KT P6SM VCTS BKN040 BKN045 OVC060CB
       TEMPO 1502/1503 2SM RA BR BKN015 OVC025
      FM150600 17008KT 6SM -SHRA BKN025 BKN035
      FM151000 13006KT P6SM VCSH BKN030 BKN050
      FM151800 18005KT P6SM SCT050=

Recent Observations METAR KCEC 150345Z AUTO 09004KT 10SM FEW020 SCT028 OVC034 07/06 A3000 P0015 METAR KCEC 150340Z AUTO 11005KT 10SM FEW012 FEW020 OVC032 07/06 A3000 P0015 METAR KCEC 150335Z AUTO 13006KT 10SM FEW012 BKN028 OVC034 07/06 A3000 P0015 METAR KCEC 150330Z AUTO 12005KT 10SM FEW012 BKN028 OVC033 07/06 A3000 P0015 METAR KCEC 150325Z AUTO 12005KT 9SM -RA SCT014 BKN028 OVC033 08/06 A3000 P0015




AvnWthrCntr_BCAWS

ADDS - METARS form results

Aviation Digital Data Service (ADDS)

Output produced by METARs form (0357 UTC 15 December 2019)
found at http://bcaws.aviationweather.gov/metar/data/
 
KCEC 150345Z AUTO 09004KT 10SM FEW020 SCT028 OVC034 07/06 A3000 RMK AO2 RAB0257E27 P0015 T00670061
KCEC 150316Z AUTO VRB04KT 3SM +RA BR SCT012 BKN017 OVC033 07/06 A3000 RMK AO2 RAB0257 P0014 T00720061
KCEC 150309Z AUTO VRB04KT 2SM +RA BR SCT016 BKN024 OVC030 07/06 A3000 RMK AO2 RAB0257 P0010 T00720061
KCEC 150256Z AUTO 13006KT 10SM SCT016 BKN021 OVC046 08/06 A2999 RMK AO2 RAB18E47 SLP155 P0003 60012 T00780056 55003
KCEC 150245Z AUTO 12005KT 10SM -RA SCT016 BKN030 OVC046 08/06 A2999 RMK AO2 RAB18 P0003 T00780056
KCEC 150156Z AUTO 17008KT 10SM BKN018 OVC026 07/06 A2998 RMK AO2 RAB30E55 SLP152 P0002 T00720061
KCEC 150136Z AUTO 15011KT 6SM -RA BR FEW021 BKN028 OVC035 07/06 A2998 RMK AO2 RAB30 P0001 T00720061
KCEC 150056Z AUTO 16012KT 10SM BKN040 BKN047 OVC060 07/06 A2998 RMK AO2 RAE36 SLP152 P0007 T00720056
KCEC 150020Z AUTO 15013KT 5SM -RA BR FEW015 FEW024 OVC037 07/06 A2998 RMK AO2 P0006 T00720056
KCEC 142356Z AUTO 15007KT 4SM +RA BR FEW018 BKN023 OVC028 07/05 A3000 RMK AO2 SLP158 P0010 60028 T00720050 10100 20072 55012
KCEC 142344Z AUTO 4SM RA BR BKN019 OVC026 07/06 A3000 RMK AO2 P0006 T00720061
KCEC 142256Z AUTO 13008KT 8SM RA FEW012 SCT018 OVC034 07/06 A2999 RMK AO2 RAE34B51 SLP155 P0005 T00720061
KCEC 142220Z AUTO 18010KT 4SM RA BR FEW012 SCT020 OVC029 08/06 A3001 RMK AO2 P0004 T00780061
KCEC 142209Z AUTO 19016KT 2 1/2SM +RA BR FEW013 SCT022 OVC030 08/06 A3001 RMK AO2 P0002 T00780061
KCEC 150133Z 1502/1524 16012KT P6SM VCTS BKN040 BKN045 OVC060CB 
     TEMPO 1502/1503 2SM RA BR BKN015 OVC025 
     FM150600 17008KT 6SM -SHRA BKN025 BKN035 
     FM151000 13006KT P6SM VCSH BKN030 BKN050 
     FM151800 18005KT P6SM SCT050
       




5 min APT wthr

CWSU Observations






RELOAD current METAR trend





METAR Numeric Codes (usually listed after RMK)

1xxxxx___6-hr maximum temp(2nd digit=0 is positive, 1 is negative)(eg. 10405 = +40.5 degrees Celsius)

2xxxxx___6-hr minimum temp (eg. 21337 = -33.7 degrees Celsius)

4/xxx___Total snow depth in inches (eg. 4/020 = snow depth of 20 inches on ground)

4xxxxxxxx___24-hr maximum/minimum temperatures, 2nd and sixth digits equal 0 for positive and 1 for negative (eg. 401551095 = 24-hr maximum temp of +15.5 degrees Celsius and a 24-hr minimum temp of -9.5 degrees Celsius)

5xxxx___3 hour pressure tendency. The second digit gives the tendency/trend: 0–3 is rising, 4 is steady and 5–8 is falling , the last 3 digits give the pressure change in tenths of a millibar in the last 3 hours. (eg 50009 indicates a rising pressure tendency/trend of 0.9 millibars.)

6xxxx___3 or 6 hour precipitation amount. The last 4 digits are the inches of rain in hundredths. (eg. 60200 = 2 inches of rain)

7xxxx___24-hour precipitation amount. The last 4 digits are the inches of rain in hundredths. (eg. 70500 = 5 inches of rain)

8/xxx___Cloud cover using WMO code. Three digit code follows the /. Lower numbers are for clearer skies, high numbers are for overcast. (I have not seen this in the NorCal airport METARs yet).

98xxx___Duration of sunshine in minutes. The last three digits after 98 are minutes. (eg. 98120 = 120 minutes of sunshine)

931xxx___Snowfall in the last 6-hours. The last three digits display snowfall in inches and tenths. (eg. 931515 = 51.5 inches of snowfall)

933xxx___Liquid water equivalent of the snow (SWE). The last three digits display liquid water equivalent of snow in inches and tenths (eg. 933055 = 5.5 inches of liquid water in snow)


Other METAR codes
SLP155 = current barometric pressure extrapolated to sea level (SLP155 equals 1015.5 hPa)

Pxxxx = liquid-equivalent precipitation accumulated during the last hour to hundredths of inches (P0050 = .5 inch of rain in the past hour)

Txxxxxxxx is the current Temperature and Dew point. The first 4 digits are temperature. The second 4 digits are Dew Point. The first digit of each group is either 0 for above zero Celsius or 1 for below zero Celsius. (eq. T00251015 = Temp +2.5C, Dew Pt -1.5C)







KSAC





KSMF





KMHR





KMCC





KEDU





KBLU





KTRK





KTVL





KRNO





KCEC





KPDX





KSEA





William R Fairchild International (Port Angeles, WA Intl Apt) (KCLM)